createdAt,value
2022-11-12T00:00:16.639Z,6.10
2022-11-12T00:02:58.751Z,6.10
2022-11-12T00:05:40.778Z,6.00
2022-11-12T00:08:23.378Z,6.00
2022-11-12T00:11:06.022Z,6.00
2022-11-12T00:13:49.077Z,5.90
2022-11-12T00:16:31.361Z,5.90
2022-11-12T00:19:12.973Z,5.80
2022-11-12T00:21:54.939Z,5.80
2022-11-12T00:24:37.006Z,5.80
2022-11-12T00:27:19.154Z,5.80
2022-11-12T00:30:02.525Z,5.70
2022-11-12T00:32:44.560Z,5.70
2022-11-12T00:35:26.138Z,5.50
2022-11-12T00:38:08.169Z,5.50
2022-11-12T00:40:50.467Z,5.50
2022-11-12T00:43:32.531Z,5.50
2022-11-12T00:46:15.873Z,5.50
2022-11-12T00:48:57.477Z,5.40
2022-11-12T00:51:40.152Z,5.40
2022-11-12T00:54:21.963Z,5.40
2022-11-12T00:57:03.959Z,5.40
2022-11-12T00:59:46.058Z,5.40
2022-11-12T01:02:29.305Z,5.40
2022-11-12T01:05:11.952Z,5.30
2022-11-12T01:07:56.229Z,5.30
2022-11-12T01:10:38.131Z,5.30
2022-11-12T01:13:20.131Z,5.20
2022-11-12T01:16:07.261Z,5.20
2022-11-12T01:18:54.318Z,5.30
2022-11-12T01:21:40.917Z,5.20
2022-11-12T01:24:22.508Z,5.20
2022-11-12T01:27:04.825Z,5.20
2022-11-12T01:29:46.404Z,5.10
2022-11-12T01:32:35.735Z,5.00
2022-11-12T01:35:18.920Z,5.00
2022-11-12T01:38:00.958Z,5.00
2022-11-12T01:40:42.990Z,5.10
2022-11-12T01:43:24.919Z,5.00
2022-11-12T01:46:15.898Z,5.00
2022-11-12T01:49:02.413Z,5.00
2022-11-12T01:51:50.534Z,5.00
2022-11-12T01:54:32.692Z,5.00
2022-11-12T01:57:15.445Z,5.00
2022-11-12T02:00:04.410Z,5.00
2022-11-12T02:02:53.454Z,5.00
2022-11-12T02:05:35.924Z,5.00
2022-11-12T02:08:19.363Z,5.00
2022-11-12T02:11:13.719Z,5.00
2022-11-12T02:14:01.063Z,5.00
2022-11-12T02:16:46.033Z,5.00
2022-11-12T02:19:27.836Z,5.00
2022-11-12T02:22:10.766Z,4.90
2022-11-12T02:24:52.514Z,5.00
2022-11-12T02:27:34.876Z,4.90
2022-11-12T02:30:16.856Z,4.90
2022-11-12T02:32:58.853Z,4.80
2022-11-12T02:35:40.859Z,4.80
2022-11-12T02:38:24.299Z,4.80
2022-11-12T02:41:06.761Z,4.80
2022-11-12T02:43:49.016Z,4.80
2022-11-12T02:46:31.185Z,4.80
2022-11-12T02:49:13.147Z,4.80
2022-11-12T02:51:55.168Z,4.80
2022-11-12T02:54:38.329Z,4.70
2022-11-12T02:57:20.266Z,4.70
2022-11-12T03:00:02.485Z,4.60
2022-11-12T03:02:58.764Z,4.70
2022-11-12T03:05:40.728Z,4.60
2022-11-12T03:08:22.881Z,4.70
2022-11-12T03:11:10.586Z,4.60
2022-11-12T03:13:52.352Z,4.60
2022-11-12T03:16:34.150Z,4.60
2022-11-12T03:19:15.835Z,4.70
2022-11-12T03:21:57.865Z,4.70
2022-11-12T03:24:39.869Z,4.70
2022-11-12T03:27:23.028Z,4.70
2022-11-12T03:30:05.872Z,4.70
2022-11-12T03:32:47.606Z,4.70
2022-11-12T03:35:30.011Z,5.00
2022-11-12T03:38:11.586Z,5.00
2022-11-12T03:40:53.681Z,5.00
2022-11-12T03:43:37.402Z,5.00
2022-11-12T03:46:19.551Z,5.10
2022-11-12T03:49:02.705Z,5.20
2022-11-12T03:51:44.693Z,5.30
2022-11-12T03:54:26.538Z,5.40
2022-11-12T03:57:08.455Z,5.50
2022-11-12T03:59:51.638Z,5.50
2022-11-12T04:02:33.615Z,5.50
2022-11-12T04:05:33.138Z,5.50
2022-11-12T04:08:35.408Z,5.50
2022-11-12T04:11:18.635Z,5.50
2022-11-12T04:14:00.576Z,5.50
2022-11-12T04:17:01.449Z,5.40
2022-11-12T04:20:00.880Z,5.40
2022-11-12T04:22:42.927Z,5.40
2022-11-12T04:25:41.616Z,5.50
2022-11-12T04:28:23.804Z,5.50
2022-11-12T04:31:04.731Z,5.50
2022-11-12T04:33:48.102Z,5.50
2022-11-12T04:36:29.819Z,5.40
2022-11-12T04:39:12.266Z,5.40
2022-11-12T04:42:11.752Z,5.50
2022-11-12T04:45:04.790Z,5.50
2022-11-12T04:47:46.567Z,5.40
2022-11-12T04:50:29.807Z,5.50
2022-11-12T04:53:11.504Z,5.60
2022-11-12T04:55:54.479Z,5.60
2022-11-12T04:58:36.364Z,5.50
2022-11-12T05:01:18.280Z,5.50
2022-11-12T05:04:00.086Z,5.50
2022-11-12T05:06:55.431Z,5.50
2022-11-12T05:09:37.765Z,5.50
2022-11-12T05:12:19.764Z,5.50
2022-11-12T05:15:01.911Z,5.50
2022-11-12T05:17:44.787Z,5.50
2022-11-12T05:20:26.574Z,5.40
2022-11-12T05:23:09.813Z,5.40
2022-11-12T05:25:51.511Z,5.40
2022-11-12T05:28:33.498Z,5.30
2022-11-12T05:31:15.267Z,5.30
2022-11-12T05:33:57.396Z,5.40
2022-11-12T05:36:39.433Z,5.40
2022-11-12T05:39:22.672Z,5.40
2022-11-12T05:42:13.692Z,5.40
2022-11-12T05:44:55.968Z,5.30
2022-11-12T05:47:37.941Z,5.30
2022-11-12T05:50:19.669Z,5.20
2022-11-12T05:53:01.650Z,5.20
2022-11-12T05:55:44.923Z,5.10
2022-11-12T05:58:26.912Z,5.10
2022-11-12T06:01:09.371Z,5.10
2022-11-12T06:03:52.016Z,5.10
2022-11-12T06:06:34.099Z,5.10
2022-11-12T06:09:15.884Z,5.00
2022-11-12T06:11:58.926Z,5.00
2022-11-12T06:14:40.720Z,5.00
2022-11-12T06:17:22.875Z,5.00
2022-11-12T06:20:05.062Z,5.00
2022-11-12T06:22:46.984Z,5.00
2022-11-12T06:25:28.964Z,4.90
2022-11-12T06:28:12.197Z,5.00
2022-11-12T06:30:54.477Z,4.90
2022-11-12T06:33:36.444Z,4.90
2022-11-12T06:36:20.844Z,4.80
2022-11-12T06:39:02.825Z,4.90
2022-11-12T06:41:44.816Z,4.90
2022-11-12T06:44:27.902Z,4.80
2022-11-12T06:47:09.875Z,4.80
2022-11-12T06:49:51.559Z,4.80
2022-11-12T06:52:33.489Z,4.80
2022-11-12T06:55:15.862Z,4.80
2022-11-12T06:57:58.166Z,4.80
2022-11-12T07:00:41.682Z,4.80
2022-11-12T07:03:23.571Z,4.70
2022-11-12T07:06:08.623Z,4.70
2022-11-12T07:08:50.790Z,4.80
2022-11-12T07:11:32.574Z,4.80
2022-11-12T07:14:14.615Z,4.80
2022-11-12T07:16:57.598Z,5.00
2022-11-12T07:19:39.757Z,5.10
2022-11-12T07:22:21.561Z,5.20
2022-11-12T07:25:03.457Z,5.50
2022-11-12T07:27:45.523Z,5.50
2022-11-12T07:30:27.443Z,5.60
2022-11-12T07:33:10.890Z,5.70
2022-11-12T07:35:59.945Z,6.00
2022-11-12T07:38:43.773Z,6.10
2022-11-12T07:41:26.550Z,6.20
2022-11-12T07:44:09.117Z,6.10
2022-11-12T07:46:51.020Z,6.30
2022-11-12T07:49:34.048Z,6.40
2022-11-12T07:52:15.821Z,6.50
2022-11-12T07:54:57.988Z,6.50
2022-11-12T07:57:39.690Z,6.70
2022-11-12T08:00:22.015Z,6.90
2022-11-12T08:03:04.067Z,7.00
2022-11-12T08:05:47.569Z,7.20
2022-11-12T08:08:30.048Z,7.20
2022-11-12T08:11:12.133Z,7.40
2022-11-12T08:13:54.367Z,7.50
2022-11-12T08:16:36.385Z,7.50
2022-11-12T08:19:18.067Z,7.50
2022-11-12T08:22:01.579Z,7.70
2022-11-12T08:24:43.430Z,7.70
2022-11-12T08:27:25.540Z,7.80
2022-11-12T08:30:09.241Z,7.90
2022-11-12T08:32:58.170Z,8.00
2022-11-12T08:35:40.247Z,8.00
2022-11-12T08:38:23.817Z,8.10
2022-11-12T08:41:08.091Z,8.30
2022-11-12T08:43:49.723Z,8.30
2022-11-12T08:46:31.670Z,8.50
2022-11-12T08:49:13.363Z,8.60
2022-11-12T08:51:55.493Z,8.70
2022-11-12T08:54:38.732Z,8.80
2022-11-12T08:57:20.494Z,9.00
2022-11-12T09:00:02.555Z,9.00
2022-11-12T09:02:44.499Z,9.10
2022-11-12T09:05:26.142Z,9.20
2022-11-12T09:08:10.565Z,9.40
2022-11-12T09:10:54.096Z,9.50
2022-11-12T09:13:36.033Z,9.40
2022-11-12T09:16:18.522Z,9.60
2022-11-12T09:19:00.310Z,9.60
2022-11-12T09:21:42.109Z,9.70
2022-11-12T09:24:24.102Z,9.90
2022-11-12T09:27:07.585Z,9.90
2022-11-12T09:29:49.814Z,9.90
2022-11-12T09:32:31.844Z,9.90
2022-11-12T09:35:13.727Z,10.00
2022-11-12T09:37:55.942Z,10.20
2022-11-12T09:40:56.762Z,10.30
2022-11-12T09:43:48.551Z,10.40
2022-11-12T09:46:38.780Z,10.50
2022-11-12T09:49:25.162Z,10.60
2022-11-12T09:52:17.174Z,10.60
2022-11-12T09:55:05.191Z,10.70
2022-11-12T09:57:47.203Z,10.80
2022-11-12T10:00:31.490Z,10.80
2022-11-12T10:03:25.709Z,10.90
2022-11-12T10:06:19.140Z,11.00
2022-11-12T10:09:06.433Z,11.00
2022-11-12T10:12:24.775Z,11.00
2022-11-12T10:15:56.607Z,11.00
2022-11-12T10:19:18.811Z,11.10
2022-11-12T10:22:16.732Z,11.30
2022-11-12T10:25:00.834Z,11.30
2022-11-12T10:27:44.316Z,11.40
2022-11-12T10:30:27.185Z,11.40
2022-11-12T10:33:15.241Z,11.50
2022-11-12T10:35:59.416Z,11.50
2022-11-12T10:38:43.495Z,11.50
2022-11-12T10:41:28.487Z,11.60
2022-11-12T10:44:15.772Z,11.70
2022-11-12T10:47:23.175Z,11.70
2022-11-12T10:50:17.739Z,11.80
2022-11-12T10:53:02.286Z,11.80
2022-11-12T10:55:57.949Z,11.90
2022-11-12T10:58:39.851Z,12.00
2022-11-12T11:01:21.957Z,12.00
2022-11-12T11:04:04.445Z,12.00
2022-11-12T11:06:47.821Z,12.10
2022-11-12T11:09:29.846Z,12.10
2022-11-12T11:12:25.283Z,12.30
2022-11-12T11:15:20.133Z,12.40
2022-11-12T11:18:02.315Z,12.50
2022-11-12T11:20:49.070Z,12.50
2022-11-12T11:23:40.055Z,12.60
2022-11-12T11:26:34.214Z,12.50
2022-11-12T11:29:33.438Z,12.70
2022-11-12T11:32:37.657Z,12.60
2022-11-12T11:35:28.705Z,12.60
2022-11-12T11:38:36.296Z,12.60
2022-11-12T11:41:51.945Z,12.80
2022-11-12T11:44:41.212Z,12.90
2022-11-12T11:47:59.527Z,13.00
2022-11-12T11:50:43.689Z,13.10
2022-11-12T11:53:31.570Z,13.20
2022-11-12T11:56:24.738Z,13.20
2022-11-12T11:59:21.876Z,13.20
2022-11-12T12:02:27.359Z,13.30
2022-11-12T12:05:30.812Z,13.50
2022-11-12T12:08:19.887Z,13.50
2022-11-12T12:11:09.377Z,13.70
2022-11-12T12:14:10.365Z,13.70
2022-11-12T12:17:05.757Z,13.70
2022-11-12T12:20:00.358Z,13.90
2022-11-12T12:22:47.012Z,14.00
2022-11-12T12:25:33.863Z,14.10
2022-11-12T12:28:27.867Z,14.10
2022-11-12T12:31:17.564Z,14.10
2022-11-12T12:34:06.322Z,14.00
2022-11-12T12:36:52.084Z,14.20
2022-11-12T12:39:48.092Z,14.20
2022-11-12T12:42:35.941Z,14.30
2022-11-12T12:45:39.599Z,14.40
2022-11-12T12:48:27.150Z,14.20
2022-11-12T12:51:09.775Z,14.30
2022-11-12T12:53:51.677Z,14.30
2022-11-12T12:56:50.291Z,14.40
2022-11-12T12:59:33.559Z,14.30
2022-11-12T13:02:22.501Z,14.30
2022-11-12T13:05:06.904Z,14.40
2022-11-12T13:07:50.905Z,14.40
2022-11-12T13:10:54.399Z,14.40
2022-11-12T13:13:37.821Z,14.50
2022-11-12T13:16:57.721Z,14.40
2022-11-12T13:19:46.829Z,14.40
2022-11-12T13:22:51.928Z,14.40
2022-11-12T13:25:34.273Z,14.50
2022-11-12T13:28:16.056Z,14.50
2022-11-12T13:31:02.065Z,14.50
2022-11-12T13:33:44.353Z,14.40
2022-11-12T13:36:29.313Z,14.50
2022-11-12T13:39:16.689Z,14.50
2022-11-12T13:42:17.626Z,14.50
2022-11-12T13:45:01.683Z,14.50
2022-11-12T13:47:44.906Z,14.40
2022-11-12T13:50:27.638Z,14.30
2022-11-12T13:53:11.265Z,14.40
2022-11-12T13:55:56.173Z,14.50
2022-11-12T13:58:39.741Z,14.50
2022-11-12T14:01:24.430Z,14.40
2022-11-12T14:04:12.065Z,14.30
2022-11-12T14:06:58.516Z,14.40
2022-11-12T14:10:00.363Z,14.40
2022-11-12T14:13:18.401Z,14.30
2022-11-12T14:16:36.458Z,14.40
2022-11-12T14:20:01.415Z,14.20
2022-11-12T14:22:45.225Z,14.30
2022-11-12T14:25:29.600Z,14.30
2022-11-12T14:28:28.872Z,14.00
2022-11-12T14:31:16.040Z,14.10
2022-11-12T14:33:58.166Z,14.10
2022-11-12T14:36:40.051Z,14.20
2022-11-12T14:39:21.998Z,14.20
2022-11-12T14:42:04.360Z,14.20
2022-11-12T14:44:47.743Z,14.20
2022-11-12T14:47:29.673Z,14.00
2022-11-12T14:50:17.291Z,14.00
2022-11-12T14:53:03.154Z,14.10
2022-11-12T14:55:50.443Z,14.20
2022-11-12T14:58:34.771Z,14.20
2022-11-12T15:04:27.405Z,14.20
2022-11-12T15:07:28.825Z,14.10
2022-11-12T15:10:33.037Z,14.00
2022-11-12T15:13:19.351Z,13.60
2022-11-12T15:16:08.135Z,13.50
2022-11-12T15:19:15.063Z,13.50
2022-11-12T15:22:01.249Z,13.50
2022-11-12T15:24:44.822Z,13.50
2022-11-12T15:27:37.167Z,13.40
2022-11-12T15:30:24.636Z,13.30
2022-11-12T15:33:19.023Z,13.20
2022-11-12T15:36:03.135Z,13.00
2022-11-12T15:38:51.224Z,12.90
2022-11-12T15:41:35.864Z,12.80
2022-11-12T15:44:18.289Z,12.80
2022-11-12T15:47:01.274Z,12.70
2022-11-12T15:49:52.604Z,12.60
2022-11-12T15:52:36.092Z,12.50
2022-11-12T15:55:19.525Z,12.30
2022-11-12T15:58:01.299Z,12.10
2022-11-12T16:00:43.261Z,11.80
2022-11-12T16:03:25.733Z,11.80
2022-11-12T16:06:11.149Z,11.80
2022-11-12T16:08:54.210Z,11.80
2022-11-12T16:11:39.741Z,11.70
2022-11-12T16:14:24.849Z,11.60
2022-11-12T16:17:10.054Z,11.50
2022-11-12T16:19:51.792Z,11.30
2022-11-12T16:22:33.803Z,11.20
2022-11-12T16:25:18.217Z,11.10
2022-11-12T16:28:00.786Z,11.10
2022-11-12T16:30:43.572Z,11.10
2022-11-12T16:33:39.932Z,11.00
2022-11-12T16:36:28.105Z,11.00
2022-11-12T16:39:13.266Z,11.00
2022-11-12T16:41:56.872Z,10.90
2022-11-12T16:44:39.386Z,10.80
2022-11-12T16:47:21.411Z,10.70
2022-11-12T16:50:03.191Z,10.60
2022-11-12T16:52:45.191Z,10.50
2022-11-12T16:55:27.406Z,10.50
2022-11-12T16:58:14.414Z,10.40
2022-11-12T17:00:56.453Z,10.30
2022-11-12T17:03:38.241Z,10.20
2022-11-12T17:06:21.286Z,10.20
2022-11-12T17:09:02.997Z,10.20
2022-11-12T17:11:44.715Z,10.10
2022-11-12T17:14:29.366Z,10.10
2022-11-12T17:17:11.475Z,10.00
2022-11-12T17:19:53.203Z,10.00
2022-11-12T17:22:35.427Z,9.90
2022-11-12T17:25:17.283Z,9.80
2022-11-12T17:27:58.901Z,9.80
2022-11-12T17:30:42.044Z,9.80
2022-11-12T17:33:24.163Z,9.80
2022-11-12T17:36:08.687Z,9.70
2022-11-12T17:38:55.986Z,9.70
2022-11-12T17:41:37.849Z,9.60
2022-11-12T17:44:21.243Z,9.50
2022-11-12T17:47:04.843Z,9.50
2022-11-12T17:49:47.096Z,9.40
2022-11-12T17:52:29.080Z,9.40
2022-11-12T17:55:11.292Z,9.30
2022-11-12T17:57:52.910Z,9.30
2022-11-12T18:00:35.449Z,9.30
2022-11-12T18:03:18.697Z,9.40
2022-11-12T18:06:02.289Z,9.30
2022-11-12T18:08:44.913Z,9.20
2022-11-12T18:11:28.769Z,9.10
2022-11-12T18:14:10.995Z,9.00
2022-11-12T18:16:53.335Z,9.00
2022-11-12T18:19:36.405Z,9.00
2022-11-12T18:22:19.447Z,9.00
2022-11-12T18:25:01.119Z,9.00
2022-11-12T18:27:43.063Z,8.80
2022-11-12T18:30:24.878Z,8.90
2022-11-12T18:33:07.228Z,8.80
2022-11-12T18:36:01.131Z,8.70
2022-11-12T18:38:42.895Z,8.70
2022-11-12T18:41:28.413Z,8.70
2022-11-12T18:44:11.499Z,8.60
2022-11-12T18:46:53.963Z,8.70
2022-11-12T18:49:36.021Z,8.60
2022-11-12T18:52:19.384Z,8.50
2022-11-12T18:55:01.632Z,8.60
2022-11-12T18:57:43.187Z,8.70
2022-11-12T19:00:25.742Z,8.70
2022-11-12T19:03:07.538Z,8.70
2022-11-12T19:05:49.455Z,8.60
2022-11-12T19:08:32.977Z,8.60
2022-11-12T19:11:18.637Z,8.60
2022-11-12T19:14:00.236Z,8.50
2022-11-12T19:16:44.713Z,8.50
2022-11-12T19:19:26.771Z,8.50
2022-11-12T19:22:08.379Z,8.50
2022-11-12T19:24:51.845Z,8.50
2022-11-12T19:27:33.996Z,8.50
2022-11-12T19:30:16.287Z,8.50
2022-11-12T19:32:58.281Z,8.50
2022-11-12T19:35:41.506Z,8.40
2022-11-12T19:38:23.586Z,8.40
2022-11-12T19:41:08.399Z,8.40
2022-11-12T19:43:50.119Z,8.40
2022-11-12T19:46:32.471Z,8.40
2022-11-12T19:49:14.208Z,8.30
2022-11-12T19:51:56.136Z,8.30
2022-11-12T19:54:38.203Z,8.30
2022-11-12T19:57:21.528Z,8.30
2022-11-12T20:00:03.809Z,8.40
2022-11-12T20:02:45.708Z,8.40
2022-11-12T20:05:27.556Z,8.30
2022-11-12T20:08:09.371Z,8.30
2022-11-12T20:10:51.316Z,8.30
2022-11-12T20:13:34.750Z,8.20
2022-11-12T20:16:23.788Z,8.20
2022-11-12T20:19:07.094Z,8.20
2022-11-12T20:21:48.949Z,8.20
2022-11-12T20:24:31.035Z,8.20
2022-11-12T20:27:13.093Z,8.10
2022-11-12T20:29:56.262Z,8.10
2022-11-12T20:32:38.350Z,8.10
2022-11-12T20:35:22.386Z,8.10
2022-11-12T20:38:04.466Z,8.00
2022-11-12T20:40:49.119Z,8.00
2022-11-12T20:43:30.764Z,8.00
2022-11-12T20:46:15.147Z,8.00
2022-11-12T20:48:57.263Z,8.00
2022-11-12T20:51:39.722Z,8.00
2022-11-12T20:54:21.875Z,8.10
2022-11-12T20:57:04.034Z,8.10
2022-11-12T20:59:46.506Z,8.20
2022-11-12T21:02:31.657Z,8.30
2022-11-12T21:05:13.933Z,8.40
2022-11-12T21:07:56.583Z,8.40
2022-11-12T21:10:39.528Z,8.50
2022-11-12T21:13:21.825Z,8.40
2022-11-12T21:16:04.342Z,8.40
2022-11-12T21:18:47.740Z,8.50
2022-11-12T21:21:31.687Z,8.50
2022-11-12T21:24:13.998Z,8.50
2022-11-12T21:26:55.731Z,8.50
2022-11-12T21:29:37.875Z,8.50
2022-11-12T21:32:19.811Z,8.50
2022-11-12T21:35:03.162Z,8.40
2022-11-12T21:37:44.897Z,8.40
2022-11-12T21:40:26.960Z,8.30
2022-11-12T21:43:08.755Z,8.30
2022-11-12T21:45:50.686Z,8.30
2022-11-12T21:48:32.447Z,8.20
2022-11-12T21:51:17.745Z,8.20
2022-11-12T21:54:03.154Z,8.20
2022-11-12T21:56:45.162Z,8.10
2022-11-12T21:59:27.498Z,8.10
2022-11-12T22:02:11.361Z,8.00
2022-11-12T22:04:53.551Z,8.00
2022-11-12T22:07:36.823Z,7.90
2022-11-12T22:10:21.985Z,7.90
2022-11-12T22:13:26.047Z,7.80
2022-11-12T22:16:08.404Z,7.80
2022-11-12T22:18:53.406Z,7.80
2022-11-12T22:21:39.690Z,7.70
2022-11-12T22:24:23.510Z,7.60
2022-11-12T22:27:05.873Z,7.60
2022-11-12T22:29:47.963Z,7.50
2022-11-12T22:32:29.607Z,7.50
2022-11-12T22:35:11.484Z,7.40
2022-11-12T22:37:53.243Z,7.40
2022-11-12T22:40:36.596Z,7.40
2022-11-12T22:43:18.509Z,7.30
2022-11-12T22:46:06.131Z,7.30
2022-11-12T22:48:48.729Z,7.30
2022-11-12T22:51:33.983Z,7.20
2022-11-12T22:54:18.057Z,7.20
2022-11-12T22:57:01.539Z,7.20
2022-11-12T22:59:43.431Z,7.20
2022-11-12T23:02:25.343Z,7.10
2022-11-12T23:05:07.862Z,7.10
2022-11-12T23:07:50.298Z,7.20
2022-11-12T23:10:32.208Z,7.20
2022-11-12T23:13:15.786Z,7.10
2022-11-12T23:15:57.548Z,7.10
2022-11-12T23:18:39.183Z,7.10
2022-11-12T23:21:24.667Z,7.10
2022-11-12T23:24:07.467Z,7.10
2022-11-12T23:26:49.443Z,7.00
2022-11-12T23:29:32.592Z,7.00
2022-11-12T23:32:14.506Z,7.00
2022-11-12T23:34:56.258Z,7.00
2022-11-12T23:37:38.069Z,7.00
2022-11-12T23:40:20.608Z,6.90
2022-11-12T23:43:02.381Z,6.90
2022-11-12T23:45:45.741Z,6.90
2022-11-12T23:48:28.542Z,6.90
2022-11-12T23:51:13.989Z,6.80
2022-11-12T23:53:55.900Z,6.80
2022-11-12T23:56:37.737Z,6.80
2022-11-12T23:59:20.036Z,6.80
